createdAt,value
2022-08-05T00:01:20.589Z,2.00
2022-08-05T00:04:14.052Z,1.98
2022-08-05T00:07:00.443Z,1.88
2022-08-05T00:10:06.605Z,2.38
2022-08-05T00:12:56.488Z,1.80
2022-08-05T00:15:57.640Z,2.10
2022-08-05T00:18:48.461Z,1.98
2022-08-05T00:21:35.754Z,1.75
2022-08-05T00:24:24.721Z,1.90
2022-08-05T00:27:17.009Z,2.00
2022-08-05T00:30:03.713Z,1.90
2022-08-05T00:32:50.252Z,2.00
2022-08-05T00:35:36.297Z,2.03
2022-08-05T00:38:34.045Z,2.15
2022-08-05T00:41:55.615Z,2.10
2022-08-05T00:44:37.493Z,1.75
2022-08-05T00:47:23.166Z,2.30
2022-08-05T00:50:10.281Z,1.83
2022-08-05T00:52:56.353Z,1.85
2022-08-05T00:55:43.777Z,2.05
2022-08-05T00:58:30.164Z,2.15
2022-08-05T01:01:16.115Z,2.50
2022-08-05T01:04:26.732Z,2.22
2022-08-05T01:07:15.502Z,2.38
2022-08-05T01:10:09.045Z,2.08
2022-08-05T01:13:12.997Z,2.67
2022-08-05T01:16:10.343Z,1.95
2022-08-05T01:19:01.124Z,1.75
2022-08-05T01:22:10.847Z,1.80
2022-08-05T01:25:07.325Z,2.33
2022-08-05T01:28:08.768Z,2.33
2022-08-05T01:31:20.099Z,1.90
2022-08-05T01:34:14.412Z,2.00
2022-08-05T01:37:09.600Z,2.33
2022-08-05T01:40:06.975Z,1.80
2022-08-05T01:42:54.764Z,1.77
2022-08-05T01:45:43.119Z,2.22
2022-08-05T01:48:32.187Z,1.90
2022-08-05T01:51:19.086Z,1.80
2022-08-05T01:54:09.891Z,1.90
2022-08-05T01:58:09.707Z,2.17
2022-08-05T02:00:05.906Z,2.28
2022-08-05T02:03:34.765Z,1.90
2022-08-05T02:06:33.425Z,2.75
2022-08-05T02:09:24.329Z,2.15
2022-08-05T02:12:21.658Z,2.10
2022-08-05T02:15:22.100Z,1.83
2022-08-05T02:18:27.847Z,2.20
2022-08-05T02:21:32.197Z,2.00
2022-08-05T02:24:36.925Z,1.85
2022-08-05T02:27:29.855Z,1.98
2022-08-05T02:30:51.864Z,2.15
2022-08-05T02:33:48.447Z,2.00
2022-08-05T02:36:36.531Z,2.03
2022-08-05T02:39:25.013Z,1.98
2022-08-05T02:42:11.505Z,1.70
2022-08-05T02:45:12.809Z,1.98
2022-08-05T02:48:11.540Z,2.03
2022-08-05T02:51:02.976Z,1.98
2022-08-05T02:53:50.037Z,1.70
2022-08-05T02:56:43.512Z,1.80
2022-08-05T02:59:47.944Z,2.05
2022-08-05T03:02:39.746Z,1.98
2022-08-05T03:06:57.090Z,2.00
2022-08-05T03:08:32.089Z,1.80
2022-08-05T03:11:57.349Z,2.38
2022-08-05T03:14:29.731Z,2.00
2022-08-05T03:17:16.133Z,2.08
2022-08-05T03:20:02.212Z,2.15
2022-08-05T03:22:50.482Z,2.05
2022-08-05T03:26:04.353Z,2.30
2022-08-05T03:28:42.961Z,2.20
2022-08-05T03:31:57.394Z,2.00
2022-08-05T03:34:36.888Z,2.30
2022-08-05T03:37:22.994Z,1.98
2022-08-05T03:40:12.039Z,2.38
2022-08-05T03:42:58.201Z,2.50
2022-08-05T03:45:55.294Z,2.10
2022-08-05T03:48:45.408Z,2.33
2022-08-05T03:52:49.414Z,2.05
2022-08-05T03:55:00.365Z,1.90
2022-08-05T03:58:08.538Z,2.35
2022-08-05T04:00:57.716Z,2.20
2022-08-05T04:04:10.083Z,2.22
2022-08-05T04:06:55.579Z,2.20
2022-08-05T04:09:53.479Z,2.30
2022-08-05T04:15:24.730Z,2.20
2022-08-05T04:18:12.737Z,2.20
2022-08-05T04:21:10.970Z,2.10
2022-08-05T04:24:06.591Z,2.35
2022-08-05T04:26:55.165Z,2.10
2022-08-05T04:29:44.158Z,2.25
2022-08-05T04:32:33.547Z,2.63
2022-08-05T04:35:22.033Z,2.05
2022-08-05T04:38:09.456Z,2.00
2022-08-05T04:41:03.530Z,1.97
2022-08-05T04:43:52.801Z,2.03
2022-08-05T04:46:38.881Z,2.10
2022-08-05T04:49:39.169Z,1.92
2022-08-05T04:52:34.070Z,1.98
2022-08-05T04:55:21.117Z,2.28
2022-08-05T04:58:26.345Z,2.00
2022-08-05T05:01:12.005Z,2.20
2022-08-05T05:03:58.049Z,1.92
2022-08-05T05:06:49.366Z,2.60
2022-08-05T05:09:38.121Z,2.58
2022-08-05T05:12:24.512Z,2.20
2022-08-05T05:15:13.223Z,2.20
2022-08-05T05:18:03.961Z,2.00
2022-08-05T05:20:50.245Z,2.10
2022-08-05T05:23:39.319Z,1.80
2022-08-05T05:26:42.534Z,2.10
2022-08-05T05:29:41.079Z,2.15
2022-08-05T05:32:37.804Z,2.00
2022-08-05T05:35:27.276Z,1.90
2022-08-05T05:38:27.252Z,2.08
2022-08-05T05:41:13.345Z,1.95
2022-08-05T05:44:02.577Z,2.00
2022-08-05T05:47:21.725Z,2.35
2022-08-05T05:50:16.407Z,2.30
2022-08-05T05:53:21.526Z,2.53
2022-08-05T05:56:09.598Z,2.70
2022-08-05T05:58:55.547Z,2.78
2022-08-05T06:01:57.114Z,2.55
2022-08-05T06:04:44.516Z,2.50
2022-08-05T06:07:41.314Z,2.92
2022-08-05T06:10:29.457Z,2.92
2022-08-05T06:13:22.245Z,2.80
2022-08-05T06:16:29.971Z,3.00
2022-08-05T06:19:15.261Z,3.03
2022-08-05T06:22:27.217Z,2.63
2022-08-05T06:25:25.288Z,2.67
2022-08-05T06:28:21.355Z,2.70
2022-08-05T06:31:11.235Z,2.55
2022-08-05T06:34:06.279Z,2.90
2022-08-05T06:36:57.844Z,2.40
2022-08-05T06:39:44.188Z,2.30
2022-08-05T06:42:30.051Z,2.10
2022-08-05T06:45:21.104Z,2.80
2022-08-05T06:48:53.133Z,2.67
2022-08-05T06:51:30.787Z,2.90
2022-08-05T06:54:19.090Z,2.50
2022-08-05T06:57:13.842Z,2.92
2022-08-05T07:00:11.840Z,2.83
2022-08-05T07:02:58.868Z,2.67
2022-08-05T07:05:46.456Z,2.58
2022-08-05T07:08:32.593Z,2.88
2022-08-05T07:11:21.952Z,3.03
2022-08-05T07:14:29.235Z,3.10
2022-08-05T07:18:01.613Z,2.42
2022-08-05T07:20:38.879Z,3.22
2022-08-05T07:23:26.231Z,2.78
2022-08-05T07:26:18.400Z,3.08
2022-08-05T07:31:55.586Z,2.58
2022-08-05T07:34:42.460Z,2.40
2022-08-05T07:37:29.237Z,2.60
2022-08-05T07:40:26.855Z,2.55
2022-08-05T07:43:20.916Z,2.20
2022-08-05T07:46:24.446Z,2.55
2022-08-05T07:49:11.162Z,2.45
2022-08-05T07:51:56.917Z,2.35
2022-08-05T07:54:47.559Z,2.40
2022-08-05T07:57:41.878Z,2.30
2022-08-05T08:00:41.014Z,2.08
2022-08-05T08:03:44.674Z,2.42
2022-08-05T08:06:31.051Z,2.33
2022-08-05T08:09:16.933Z,2.13
2022-08-05T08:12:16.947Z,2.80
2022-08-05T08:15:15.757Z,2.05
2022-08-05T08:18:02.276Z,2.20
2022-08-05T08:21:02.364Z,2.80
2022-08-05T08:24:02.216Z,2.35
2022-08-05T08:26:50.886Z,2.20
2022-08-05T08:30:06.116Z,2.28
2022-08-05T08:32:44.536Z,2.58
2022-08-05T08:35:35.231Z,2.22
2022-08-05T08:38:32.317Z,2.67
2022-08-05T08:41:26.151Z,3.03
2022-08-05T08:45:20.485Z,2.33
2022-08-05T08:48:06.878Z,2.50
2022-08-05T08:51:03.209Z,2.17
2022-08-05T08:53:53.541Z,2.08
2022-08-05T08:56:47.742Z,2.90
2022-08-05T08:59:36.013Z,2.10
2022-08-05T09:02:26.541Z,1.92
2022-08-05T09:05:17.539Z,2.13
2022-08-05T09:08:04.245Z,1.85
2022-08-05T09:10:51.340Z,2.53
2022-08-05T09:14:01.053Z,2.25
2022-08-05T09:16:48.690Z,2.03
2022-08-05T09:19:36.685Z,1.92
2022-08-05T09:23:09.006Z,1.70
2022-08-05T09:26:20.864Z,2.40
2022-08-05T09:29:09.125Z,1.85
2022-08-05T09:32:41.324Z,2.47
2022-08-05T09:35:26.482Z,2.13
2022-08-05T09:38:18.096Z,2.35
2022-08-05T09:41:13.197Z,2.00
2022-08-05T09:44:03.620Z,2.17
2022-08-05T09:46:50.293Z,2.15
2022-08-05T09:50:00.932Z,2.33
2022-08-05T09:52:57.074Z,1.80
2022-08-05T09:55:57.213Z,2.30
2022-08-05T09:59:05.155Z,2.05
2022-08-05T10:01:58.229Z,1.77
2022-08-05T10:04:45.220Z,1.95
2022-08-05T10:08:35.203Z,2.10
2022-08-05T10:10:57.635Z,2.10
2022-08-05T10:13:47.436Z,2.10
2022-08-05T10:16:41.852Z,2.15
2022-08-05T10:20:03.848Z,2.10
2022-08-05T10:22:48.649Z,1.95
2022-08-05T10:25:36.286Z,1.77
2022-08-05T10:28:29.104Z,2.33
2022-08-05T10:34:25.913Z,2.22
2022-08-05T10:37:16.463Z,2.17
2022-08-05T10:40:17.574Z,2.00
2022-08-05T10:43:23.295Z,2.42
2022-08-05T10:46:19.299Z,1.97
2022-08-05T10:49:16.852Z,1.90
2022-08-05T10:52:05.216Z,2.00
2022-08-05T10:55:16.021Z,2.00
2022-08-05T10:58:09.346Z,2.33
2022-08-05T11:01:03.171Z,2.38
2022-08-05T11:04:17.556Z,1.92
2022-08-05T11:07:09.082Z,2.40
2022-08-05T11:10:03.616Z,2.22
2022-08-05T11:12:57.367Z,1.77
2022-08-05T11:16:01.332Z,2.05
2022-08-05T11:18:47.716Z,2.35
2022-08-05T11:21:48.785Z,2.00
2022-08-05T11:24:35.648Z,1.80
2022-08-05T11:27:50.847Z,2.50
2022-08-05T11:30:56.216Z,2.10
2022-08-05T11:33:48.107Z,1.50
2022-08-05T11:36:52.911Z,1.48
2022-08-05T11:39:55.135Z,1.50
2022-08-05T11:42:46.509Z,1.73
2022-08-05T11:46:23.456Z,1.30
2022-08-05T11:48:42.236Z,1.42
2022-08-05T11:51:43.986Z,1.63
2022-08-05T11:54:34.618Z,1.40
2022-08-05T11:57:24.887Z,1.50
2022-08-05T12:00:46.975Z,1.83
2022-08-05T12:03:56.364Z,1.88
2022-08-05T12:06:48.957Z,1.95
2022-08-05T12:09:53.747Z,1.90
2022-08-05T12:12:39.704Z,1.75
2022-08-05T12:15:45.271Z,2.00
2022-08-05T12:18:38.720Z,1.90
2022-08-05T12:21:30.353Z,1.90
2022-08-05T12:24:18.697Z,1.85
2022-08-05T12:27:09.777Z,1.63
2022-08-05T12:30:15.556Z,1.80
2022-08-05T12:33:07.120Z,1.98
2022-08-05T12:36:09.180Z,2.00
2022-08-05T12:38:55.771Z,1.75
2022-08-05T12:41:43.553Z,1.70
2022-08-05T12:44:33.915Z,1.95
2022-08-05T12:47:31.081Z,2.00
2022-08-05T12:50:17.465Z,1.80
2022-08-05T12:53:06.049Z,2.00
2022-08-05T12:55:54.313Z,1.40
2022-08-05T12:58:53.619Z,1.95
2022-08-05T13:02:03.965Z,1.67
2022-08-05T13:04:54.323Z,2.05
2022-08-05T13:07:59.485Z,2.08
2022-08-05T13:10:50.540Z,1.65
2022-08-05T13:14:05.235Z,1.60
2022-08-05T13:16:47.762Z,1.90
2022-08-05T13:19:51.760Z,1.80
2022-08-05T13:22:43.779Z,1.58
2022-08-05T13:25:52.764Z,1.65
2022-08-05T13:28:36.335Z,2.10
2022-08-05T13:31:34.053Z,1.73
2022-08-05T13:34:35.889Z,1.92
2022-08-05T13:37:34.243Z,2.00
2022-08-05T13:40:27.592Z,1.75
2022-08-05T13:43:23.363Z,2.30
2022-08-05T13:46:11.501Z,1.95
2022-08-05T13:49:00.959Z,1.77
2022-08-05T13:51:47.548Z,1.60
2022-08-05T13:54:33.418Z,1.50
2022-08-05T13:57:19.092Z,1.85
2022-08-05T14:00:05.696Z,1.98
2022-08-05T14:02:58.007Z,2.20
2022-08-05T14:06:24.407Z,1.80
2022-08-05T14:08:52.831Z,2.22
2022-08-05T14:12:00.670Z,1.90
2022-08-05T14:14:46.932Z,1.90
2022-08-05T14:17:33.408Z,2.13
2022-08-05T14:20:19.777Z,1.75
2022-08-05T14:23:13.104Z,2.08
2022-08-05T14:26:00.554Z,2.03
2022-08-05T14:28:52.153Z,1.67
2022-08-05T14:32:03.642Z,1.90
2022-08-05T14:34:43.854Z,2.00
2022-08-05T14:37:48.220Z,1.85
2022-08-05T14:40:35.881Z,2.20
2022-08-05T14:43:21.783Z,1.73
2022-08-05T14:46:30.608Z,2.05
2022-08-05T14:49:16.515Z,1.80
2022-08-05T14:52:02.682Z,1.98
2022-08-05T14:54:48.560Z,1.77
2022-08-05T14:57:56.546Z,2.03
2022-08-05T15:00:58.680Z,2.10
2022-08-05T15:03:45.888Z,1.63
2022-08-05T15:06:34.802Z,1.67
2022-08-05T15:09:51.574Z,1.70
2022-08-05T15:12:33.653Z,1.98
2022-08-05T15:15:56.003Z,2.22
2022-08-05T15:18:36.990Z,1.95
2022-08-05T15:21:22.966Z,1.75
2022-08-05T15:24:10.368Z,1.90
2022-08-05T15:26:57.109Z,1.70
2022-08-05T15:29:43.045Z,1.90
2022-08-05T15:32:29.124Z,1.70
2022-08-05T15:35:15.417Z,1.80
2022-08-05T15:38:33.440Z,1.73
2022-08-05T15:41:21.997Z,1.83
2022-08-05T15:44:10.067Z,1.73
2022-08-05T15:46:56.313Z,1.80
2022-08-05T15:49:58.496Z,2.20
2022-08-05T15:52:54.306Z,1.95
2022-08-05T15:56:02.437Z,1.73
2022-08-05T15:58:48.836Z,2.05
2022-08-05T16:01:39.571Z,1.95
2022-08-05T16:04:39.180Z,1.73
2022-08-05T16:07:25.241Z,1.50
2022-08-05T16:10:15.822Z,2.03
2022-08-05T16:13:05.458Z,1.80
2022-08-05T16:15:51.922Z,2.00
2022-08-05T16:18:52.228Z,1.65
2022-08-05T16:21:58.255Z,1.70
2022-08-05T16:24:51.629Z,1.80
2022-08-05T16:28:00.452Z,1.88
2022-08-05T16:30:44.593Z,1.83
2022-08-05T16:33:41.645Z,2.03
2022-08-05T16:36:27.669Z,1.65
2022-08-05T16:39:14.171Z,1.70
2022-08-05T16:42:14.116Z,1.98
2022-08-05T16:45:06.366Z,1.90
2022-08-05T16:48:12.084Z,1.77
2022-08-05T16:51:12.538Z,1.67
2022-08-05T16:54:04.147Z,2.15
2022-08-05T16:56:55.318Z,1.80
2022-08-05T17:00:01.500Z,1.73
2022-08-05T17:02:50.253Z,1.80
2022-08-05T17:05:37.695Z,1.70
2022-08-05T17:08:36.057Z,1.80
2022-08-05T17:11:30.743Z,1.85
2022-08-05T17:17:24.193Z,1.83
2022-08-05T17:20:28.188Z,1.90
2022-08-05T17:24:03.691Z,1.80
2022-08-05T17:26:20.779Z,1.67
2022-08-05T17:29:10.215Z,1.80
2022-08-05T17:31:58.455Z,2.22
2022-08-05T17:34:49.276Z,1.83
2022-08-05T17:37:41.232Z,2.50
2022-08-05T17:40:31.505Z,2.05
2022-08-05T17:43:17.340Z,2.58
2022-08-05T17:46:03.531Z,2.38
2022-08-05T17:48:50.008Z,2.60
2022-08-05T17:51:40.436Z,2.80
2022-08-05T17:54:27.255Z,2.50
2022-08-05T17:57:12.891Z,2.47
2022-08-05T18:00:04.961Z,2.45
2022-08-05T18:02:51.290Z,2.70
2022-08-05T18:05:38.977Z,2.75
2022-08-05T18:08:24.575Z,2.92
2022-08-05T18:11:10.301Z,2.75
2022-08-05T18:14:13.396Z,3.17
2022-08-05T18:16:59.347Z,2.65
2022-08-05T18:19:45.901Z,2.63
2022-08-05T18:22:54.136Z,2.70
2022-08-05T18:25:44.875Z,2.75
2022-08-05T18:28:31.306Z,2.53
2022-08-05T18:31:17.277Z,2.47
2022-08-05T18:34:06.001Z,2.70
2022-08-05T18:36:52.187Z,2.47
2022-08-05T18:40:30.965Z,2.75
2022-08-05T18:42:45.346Z,2.85
2022-08-05T18:45:41.465Z,2.60
2022-08-05T18:48:31.233Z,2.22
2022-08-05T18:52:06.090Z,2.55
2022-08-05T18:54:45.943Z,2.60
2022-08-05T18:57:43.660Z,2.58
2022-08-05T19:00:38.841Z,2.38
2022-08-05T19:03:53.353Z,2.80
2022-08-05T19:06:37.309Z,2.92
2022-08-05T19:09:40.036Z,2.70
2022-08-05T19:12:26.147Z,2.70
2022-08-05T19:15:58.045Z,2.20
2022-08-05T19:18:22.381Z,2.60
2022-08-05T19:21:08.341Z,2.60
2022-08-05T19:24:05.952Z,2.47
2022-08-05T19:26:55.749Z,2.67
2022-08-05T19:29:42.629Z,2.50
2022-08-05T19:32:28.872Z,2.40
2022-08-05T19:35:15.575Z,2.50
2022-08-05T19:38:04.393Z,2.53
2022-08-05T19:40:52.873Z,2.30
2022-08-05T19:44:06.984Z,2.45
2022-08-05T19:46:45.294Z,2.78
2022-08-05T19:49:31.133Z,2.50
2022-08-05T19:52:31.630Z,2.58
2022-08-05T19:56:14.766Z,2.30
2022-08-05T19:58:29.401Z,2.35
2022-08-05T20:01:16.372Z,2.35
2022-08-05T20:04:14.231Z,2.30
2022-08-05T20:07:01.915Z,2.40
2022-08-05T20:09:53.566Z,2.28
2022-08-05T20:15:51.862Z,2.30
2022-08-05T20:18:40.889Z,2.50
2022-08-05T20:21:27.777Z,2.30
2022-08-05T20:24:16.957Z,2.38
2022-08-05T20:27:02.435Z,2.50
2022-08-05T20:29:57.494Z,2.40
2022-08-05T20:32:45.099Z,2.47
2022-08-05T20:35:31.670Z,2.38
2022-08-05T20:38:28.253Z,2.20
2022-08-05T20:41:24.192Z,2.33
2022-08-05T20:44:17.722Z,2.55
2022-08-05T20:47:16.993Z,2.42
2022-08-05T20:50:05.469Z,2.58
2022-08-05T20:52:53.276Z,2.67
2022-08-05T20:55:56.456Z,2.67
2022-08-05T20:58:45.767Z,2.10
2022-08-05T21:01:38.583Z,2.40
2022-08-05T21:04:27.072Z,2.40
2022-08-05T21:07:13.970Z,2.38
2022-08-05T21:09:59.904Z,2.25
2022-08-05T21:13:03.056Z,2.47
2022-08-05T21:15:54.849Z,2.67
2022-08-05T21:18:44.939Z,2.67
2022-08-05T21:21:39.206Z,2.60
2022-08-05T21:24:30.022Z,2.60
2022-08-05T21:27:16.574Z,2.92
2022-08-05T21:30:02.527Z,2.30
2022-08-05T21:32:48.647Z,2.55
2022-08-05T21:35:56.028Z,2.60
2022-08-05T21:38:41.445Z,2.50
2022-08-05T21:41:33.689Z,2.28
2022-08-05T21:44:26.928Z,2.63
2022-08-05T21:47:17.628Z,2.53
2022-08-05T21:50:19.695Z,2.70
2022-08-05T21:53:17.416Z,2.15
2022-08-05T21:56:16.238Z,2.33
2022-08-05T21:59:07.951Z,2.38
2022-08-05T22:02:08.957Z,2.58
2022-08-05T22:04:58.320Z,2.35
2022-08-05T22:07:59.492Z,2.42
2022-08-05T22:10:48.353Z,2.50
2022-08-05T22:14:32.559Z,2.53
2022-08-05T22:16:50.901Z,2.22
2022-08-05T22:20:03.080Z,2.22
2022-08-05T22:23:02.489Z,2.60
2022-08-05T22:26:21.703Z,2.60
2022-08-05T22:29:07.169Z,2.45
2022-08-05T22:31:55.306Z,2.60
2022-08-05T22:34:45.902Z,2.40
2022-08-05T22:37:59.308Z,2.63
2022-08-05T22:40:37.838Z,2.83
2022-08-05T22:43:36.905Z,4.90
2022-08-05T22:46:25.710Z,5.25
2022-08-05T22:50:17.759Z,4.30
2022-08-05T22:52:30.319Z,3.83
2022-08-05T22:55:21.743Z,4.03
2022-08-05T22:58:07.897Z,3.47
2022-08-05T23:00:57.718Z,3.20
2022-08-05T23:03:58.523Z,2.72
2022-08-05T23:06:45.530Z,3.00
2022-08-05T23:09:54.665Z,2.92
2022-08-05T23:12:41.069Z,2.88
2022-08-05T23:15:35.167Z,3.10
2022-08-05T23:18:22.913Z,2.60
2022-08-05T23:21:10.293Z,2.60
2022-08-05T23:23:56.866Z,2.53
2022-08-05T23:26:44.137Z,2.40
2022-08-05T23:29:34.451Z,2.50
2022-08-05T23:32:22.921Z,2.33
2022-08-05T23:35:09.179Z,2.30
2022-08-05T23:37:54.873Z,1.90
2022-08-05T23:40:42.496Z,2.22
2022-08-05T23:44:03.218Z,2.47
2022-08-05T23:46:42.714Z,2.65
2022-08-05T23:49:35.837Z,2.83
2022-08-05T23:52:31.843Z,2.50
2022-08-05T23:55:19.034Z,2.60
2022-08-05T23:58:04.949Z,2.75
